Terminal Aerodrome Forecast
Issued by NWS Bismarck, ND

Home | Current Version | Previous Version | Graphics & Text | Print | Product List | Glossary On
Versions: 1 2 3 4 5 6 7 8 9 10 11 12 13 14 15
000
FTUS43 KBIS 022333
TAFISN
TAF
KISN 022333Z 0300/0324 30008KT P6SM SCT120
     FM030400 33011KT P6SM SKC
     FM030700 31004KT P6SM SKC
     FM031500 32011KT P6SM SKC=

USA.gov is the U.S. government's official web portal to all federal, state and local government web resources and services.